createdAt,value
2019-05-09T00:00:07.754Z,0.90
2019-05-09T00:03:13.816Z,0.97
2019-05-09T00:06:17.886Z,0.70
2019-05-09T00:09:23.159Z,0.80
2019-05-09T00:12:27.358Z,0.90
2019-05-09T00:15:33.300Z,1.00
2019-05-09T00:18:37.839Z,1.33
2019-05-09T00:21:44.353Z,0.60
2019-05-09T00:24:48.549Z,0.80
2019-05-09T00:27:53.697Z,0.90
2019-05-09T00:31:09.122Z,0.90
2019-05-09T00:34:17.851Z,0.80
2019-05-09T00:37:43.081Z,0.90
2019-05-09T00:40:56.000Z,0.90
2019-05-09T00:43:59.631Z,0.80
2019-05-09T00:47:09.989Z,0.83
2019-05-09T00:50:14.318Z,0.90
2019-05-09T00:53:18.291Z,0.70
2019-05-09T00:56:24.015Z,0.90
2019-05-09T00:59:29.335Z,0.90
2019-05-09T01:02:34.099Z,0.80
2019-05-09T01:05:38.258Z,0.90
2019-05-09T01:08:44.212Z,1.00
2019-05-09T01:11:48.240Z,0.93
2019-05-09T01:14:53.881Z,0.90
2019-05-09T01:17:58.170Z,0.93
2019-05-09T01:21:03.959Z,0.97
2019-05-09T01:24:08.466Z,1.00
2019-05-09T01:27:14.203Z,1.00
2019-05-09T01:30:18.538Z,1.10
2019-05-09T01:33:29.309Z,1.33
2019-05-09T01:36:50.815Z,1.20
2019-05-09T01:39:55.022Z,1.17
2019-05-09T01:42:59.153Z,1.20
2019-05-09T01:46:03.891Z,1.10
2019-05-09T01:49:08.070Z,1.20
2019-05-09T01:52:13.762Z,1.40
2019-05-09T01:55:17.935Z,1.10
2019-05-09T01:58:23.229Z,1.17
2019-05-09T02:01:27.482Z,1.17
2019-05-09T02:04:33.402Z,1.40
2019-05-09T02:07:37.569Z,1.40
2019-05-09T02:10:44.055Z,1.37
2019-05-09T02:13:48.507Z,1.43
2019-05-09T02:17:07.054Z,1.20
2019-05-09T02:20:13.520Z,1.07
2019-05-09T02:23:16.621Z,1.10
2019-05-09T02:26:20.564Z,1.03
2019-05-09T02:29:24.517Z,1.00
2019-05-09T02:32:28.874Z,1.23
2019-05-09T02:35:39.586Z,2.23
2019-05-09T02:38:39.240Z,1.30
2019-05-09T02:41:59.610Z,2.00
2019-05-09T02:44:49.621Z,1.23
2019-05-09T02:47:54.084Z,1.13
2019-05-09T02:51:00.336Z,1.30
2019-05-09T02:54:04.157Z,1.03
2019-05-09T02:57:09.324Z,0.90
2019-05-09T03:00:33.213Z,1.40
2019-05-09T03:03:39.402Z,1.10
2019-05-09T03:06:43.421Z,1.07
2019-05-09T03:09:48.219Z,0.90
2019-05-09T03:12:52.403Z,1.03
2019-05-09T03:16:00.535Z,0.90
2019-05-09T03:19:04.854Z,0.90
2019-05-09T03:22:14.248Z,1.00
2019-05-09T03:25:19.255Z,1.13
2019-05-09T03:28:39.355Z,1.10
2019-05-09T03:31:43.951Z,1.03
2019-05-09T03:34:48.239Z,0.50
2019-05-09T03:38:07.845Z,0.60
2019-05-09T03:41:11.462Z,0.50
2019-05-09T03:44:17.909Z,0.43
2019-05-09T03:47:31.475Z,0.80
2019-05-09T03:50:35.585Z,0.30
2019-05-09T03:53:40.306Z,0.70
2019-05-09T03:56:47.957Z,0.90
2019-05-09T03:59:52.142Z,0.57
2019-05-09T04:02:58.061Z,0.90
2019-05-09T04:06:03.191Z,0.90
2019-05-09T04:09:07.630Z,1.03
2019-05-09T04:12:12.021Z,0.87
2019-05-09T04:15:18.914Z,0.70
2019-05-09T04:18:21.883Z,0.70
2019-05-09T04:21:27.980Z,1.07
2019-05-09T04:24:32.874Z,2.23
2019-05-09T04:27:37.518Z,0.70
2019-05-09T04:30:42.031Z,0.90
2019-05-09T04:33:47.357Z,0.60
2019-05-09T04:36:51.946Z,0.70
2019-05-09T04:40:01.592Z,0.80
2019-05-09T04:43:11.958Z,0.70
2019-05-09T04:46:13.069Z,0.77
2019-05-09T04:49:14.556Z,0.73
2019-05-09T04:52:18.520Z,1.20
2019-05-09T04:55:27.289Z,0.80
2019-05-09T04:58:31.188Z,1.03
2019-05-09T05:02:03.664Z,0.70
2019-05-09T05:05:07.994Z,0.60
2019-05-09T05:08:11.821Z,0.93
2019-05-09T05:11:17.844Z,1.00
2019-05-09T05:14:21.805Z,0.77
2019-05-09T05:17:30.295Z,0.60
2019-05-09T05:20:31.772Z,0.70
2019-05-09T05:23:47.141Z,1.07
2019-05-09T05:26:51.775Z,0.87
2019-05-09T05:29:58.376Z,0.60
2019-05-09T05:33:05.063Z,0.70
2019-05-09T05:36:09.632Z,1.00
2019-05-09T05:39:14.339Z,0.87
2019-05-09T05:42:22.026Z,1.10
2019-05-09T05:45:28.385Z,0.93
2019-05-09T05:48:32.488Z,0.90
2019-05-09T05:51:49.153Z,1.90
2019-05-09T05:54:53.495Z,1.37
2019-05-09T05:57:58.099Z,1.23
2019-05-09T06:01:04.566Z,1.70
2019-05-09T06:04:08.753Z,2.00
2019-05-09T06:07:12.919Z,1.07
2019-05-09T06:10:18.661Z,0.80
2019-05-09T06:13:23.289Z,0.93
2019-05-09T06:16:28.128Z,0.70
2019-05-09T06:19:32.481Z,0.80
2019-05-09T06:22:38.248Z,1.00
2019-05-09T06:25:42.203Z,0.70
2019-05-09T06:28:48.122Z,0.80
2019-05-09T06:31:52.220Z,0.93
2019-05-09T06:34:57.835Z,0.90
2019-05-09T06:38:01.938Z,0.70
2019-05-09T06:41:08.489Z,0.77
2019-05-09T06:44:28.312Z,0.80
2019-05-09T06:47:38.203Z,0.80
2019-05-09T06:50:42.571Z,1.50
2019-05-09T06:53:48.858Z,0.90
2019-05-09T06:56:53.206Z,1.50
2019-05-09T06:59:57.897Z,0.80
2019-05-09T07:03:08.081Z,0.53
2019-05-09T07:06:17.803Z,0.70
2019-05-09T07:09:43.755Z,0.60
2019-05-09T07:12:48.709Z,0.60
2019-05-09T07:15:53.290Z,0.40
2019-05-09T07:18:58.018Z,0.37
2019-05-09T07:22:19.666Z,0.90
2019-05-09T07:25:48.915Z,0.50
2019-05-09T07:28:53.147Z,0.50
2019-05-09T07:32:05.019Z,0.50
2019-05-09T07:35:09.564Z,0.40
2019-05-09T07:38:13.794Z,0.63
2019-05-09T07:41:18.127Z,0.40
2019-05-09T07:44:22.346Z,0.60
2019-05-09T07:47:28.217Z,0.50
2019-05-09T07:50:32.299Z,0.70
2019-05-09T07:53:38.029Z,0.60
2019-05-09T07:56:42.425Z,0.70
2019-05-09T07:59:47.856Z,0.90
2019-05-09T08:02:51.999Z,1.70
2019-05-09T08:05:57.967Z,1.40
2019-05-09T08:09:03.274Z,0.80
2019-05-09T08:12:07.573Z,0.80
2019-05-09T08:15:16.626Z,1.00
2019-05-09T08:18:18.212Z,1.00
2019-05-09T08:21:22.351Z,0.80
2019-05-09T08:24:27.812Z,0.80
2019-05-09T08:27:32.590Z,0.70
2019-05-09T08:30:40.093Z,0.63
2019-05-09T08:33:42.297Z,0.80
2019-05-09T08:36:47.781Z,1.10
2019-05-09T08:39:52.222Z,1.67
2019-05-09T08:42:58.534Z,1.10
2019-05-09T08:46:02.443Z,0.70
2019-05-09T08:49:08.227Z,0.70
2019-05-09T08:52:16.442Z,0.70
2019-05-09T08:55:19.702Z,0.77
2019-05-09T08:58:23.594Z,0.70
2019-05-09T09:01:46.095Z,0.50
2019-05-09T09:04:33.991Z,0.70
2019-05-09T09:07:38.310Z,0.80
2019-05-09T09:10:42.266Z,0.70
2019-05-09T09:13:48.294Z,0.73
2019-05-09T09:16:52.395Z,0.80
2019-05-09T09:19:58.341Z,0.90
2019-05-09T09:23:02.912Z,1.70
2019-05-09T09:26:08.066Z,2.93
2019-05-09T09:29:12.148Z,1.00
2019-05-09T09:32:18.664Z,0.80
2019-05-09T09:35:21.995Z,0.97
2019-05-09T09:38:28.112Z,0.90
2019-05-09T09:41:33.074Z,0.63
2019-05-09T09:44:39.383Z,0.90
2019-05-09T09:47:43.279Z,0.60
2019-05-09T09:50:51.348Z,0.70
2019-05-09T09:53:53.346Z,0.70
2019-05-09T09:56:58.573Z,0.63
2019-05-09T10:00:23.404Z,0.90
2019-05-09T10:03:27.593Z,0.53
2019-05-09T10:06:32.262Z,0.60
2019-05-09T10:09:36.357Z,0.87
2019-05-09T10:12:44.301Z,0.70
2019-05-09T10:16:02.801Z,1.10
2019-05-09T10:19:18.532Z,0.60
2019-05-09T10:22:25.832Z,0.57
2019-05-09T10:25:29.440Z,0.60
2019-05-09T10:28:33.721Z,0.77
2019-05-09T10:31:39.204Z,0.80
2019-05-09T10:34:43.436Z,0.50
2019-05-09T10:37:48.558Z,0.80
2019-05-09T10:40:53.504Z,0.80
2019-05-09T10:44:04.081Z,0.93
2019-05-09T10:47:21.470Z,0.70
2019-05-09T10:50:25.364Z,0.70
2019-05-09T10:53:29.270Z,0.70
2019-05-09T10:56:33.513Z,1.20
2019-05-09T10:59:38.280Z,1.87
2019-05-09T11:02:42.901Z,2.80
2019-05-09T11:05:47.162Z,0.90
2019-05-09T11:08:51.014Z,0.60
2019-05-09T11:11:58.629Z,0.70
2019-05-09T11:15:01.439Z,0.83
2019-05-09T11:18:07.907Z,0.60
2019-05-09T11:21:11.559Z,0.60
2019-05-09T11:24:15.806Z,0.60
2019-05-09T11:27:20.008Z,1.20
2019-05-09T11:30:24.110Z,1.10
2019-05-09T11:33:28.300Z,1.00
2019-05-09T11:36:32.182Z,0.70
2019-05-09T11:39:41.770Z,0.87
2019-05-09T11:42:41.962Z,0.83
2019-05-09T11:45:47.891Z,0.77
2019-05-09T11:48:51.961Z,0.70
2019-05-09T11:51:57.649Z,1.33
2019-05-09T11:55:02.056Z,1.20
2019-05-09T11:58:08.409Z,1.00
2019-05-09T12:01:12.730Z,1.07
2019-05-09T12:04:18.718Z,0.77
2019-05-09T12:07:22.897Z,0.80
2019-05-09T12:10:28.610Z,0.87
2019-05-09T12:13:33.424Z,0.90
2019-05-09T12:16:38.201Z,1.00
2019-05-09T12:19:42.405Z,1.10
2019-05-09T12:22:48.464Z,1.30
2019-05-09T12:25:52.748Z,1.37
2019-05-09T12:28:57.818Z,1.70
2019-05-09T12:32:02.424Z,1.10
2019-05-09T12:35:08.676Z,1.53
2019-05-09T12:38:12.380Z,1.40
2019-05-09T12:41:18.685Z,1.50
2019-05-09T12:44:24.920Z,1.20
2019-05-09T12:47:29.091Z,0.97
2019-05-09T12:50:33.528Z,1.40
2019-05-09T12:53:39.597Z,1.00
2019-05-09T12:56:44.421Z,0.73
2019-05-09T12:59:52.680Z,1.30
2019-05-09T13:02:54.892Z,5.27
2019-05-09T13:05:59.491Z,3.77
2019-05-09T13:09:08.154Z,2.90
2019-05-09T13:12:11.848Z,2.73
2019-05-09T13:15:18.399Z,1.20
2019-05-09T13:18:25.386Z,1.40
2019-05-09T13:21:32.577Z,1.10
2019-05-09T13:24:34.498Z,0.77
2019-05-09T13:27:39.032Z,2.10
2019-05-09T13:30:43.781Z,0.60
2019-05-09T13:33:48.846Z,0.83
2019-05-09T13:36:53.390Z,0.73
2019-05-09T13:39:57.416Z,0.50
2019-05-09T13:43:01.893Z,0.70
2019-05-09T13:46:08.469Z,0.93
2019-05-09T13:49:15.414Z,0.80
2019-05-09T13:52:18.154Z,0.50
2019-05-09T13:55:22.327Z,0.50
2019-05-09T13:58:28.388Z,0.50
2019-05-09T14:01:32.331Z,0.53
2019-05-09T14:04:39.453Z,0.70
2019-05-09T14:07:42.375Z,0.70
2019-05-09T14:10:48.367Z,0.87
2019-05-09T14:13:52.177Z,0.70
2019-05-09T14:16:56.108Z,0.43
2019-05-09T14:20:00.158Z,0.63
2019-05-09T14:23:04.533Z,0.67
2019-05-09T14:26:09.549Z,0.43
2019-05-09T14:29:13.877Z,0.43
2019-05-09T14:32:18.277Z,0.50
2019-05-09T14:35:22.233Z,0.50
2019-05-09T14:38:26.348Z,0.60
2019-05-09T14:41:30.283Z,0.60
2019-05-09T14:44:37.581Z,0.40
2019-05-09T14:47:42.686Z,0.50
2019-05-09T14:50:49.402Z,0.50
2019-05-09T14:53:52.759Z,0.40
2019-05-09T14:56:58.321Z,0.70
2019-05-09T15:00:03.667Z,0.50
2019-05-09T15:03:08.303Z,0.30
2019-05-09T15:06:12.691Z,0.57
2019-05-09T15:09:18.174Z,1.50
2019-05-09T15:12:22.707Z,1.33
2019-05-09T15:15:32.017Z,1.67
2019-05-09T15:18:32.602Z,0.50
2019-05-09T15:21:38.203Z,0.40
2019-05-09T15:24:42.966Z,0.43
2019-05-09T15:27:47.666Z,0.30
2019-05-09T15:30:52.706Z,0.60
2019-05-09T15:33:57.039Z,0.53
2019-05-09T15:37:01.234Z,0.53
2019-05-09T15:40:08.452Z,0.53
2019-05-09T15:43:11.626Z,0.40
2019-05-09T15:46:24.062Z,0.40
2019-05-09T15:49:28.570Z,0.60
2019-05-09T15:52:33.028Z,0.40
2019-05-09T15:55:37.417Z,0.60
2019-05-09T15:58:41.558Z,0.40
2019-05-09T16:01:45.715Z,0.67
2019-05-09T16:04:50.146Z,0.70
2019-05-09T16:07:54.079Z,0.57
2019-05-09T16:10:58.629Z,0.40
2019-05-09T16:14:03.258Z,0.50
2019-05-09T16:17:07.945Z,0.50
2019-05-09T16:20:12.320Z,0.50
2019-05-09T16:23:18.396Z,0.60
2019-05-09T16:26:22.117Z,0.50
2019-05-09T16:29:28.508Z,0.50
2019-05-09T16:32:32.743Z,0.50
2019-05-09T16:35:38.148Z,0.90
2019-05-09T16:38:48.479Z,0.83
2019-05-09T16:41:48.941Z,1.00
2019-05-09T16:44:52.776Z,0.80
2019-05-09T16:47:57.542Z,1.20
2019-05-09T16:51:04.336Z,0.80
2019-05-09T16:54:08.142Z,0.90
2019-05-09T16:57:12.079Z,0.80
2019-05-09T17:00:48.327Z,0.80
2019-05-09T17:03:52.465Z,0.80
2019-05-09T17:06:57.653Z,0.90
2019-05-09T17:10:02.052Z,1.00
2019-05-09T17:13:07.797Z,0.83
2019-05-09T17:16:12.545Z,0.90
2019-05-09T17:19:19.165Z,1.10
2019-05-09T17:22:41.438Z,1.33
2019-05-09T17:25:47.927Z,0.80
2019-05-09T17:28:51.878Z,0.70
2019-05-09T17:31:58.349Z,0.93
2019-05-09T17:35:02.235Z,1.43
2019-05-09T17:38:08.645Z,0.90
2019-05-09T17:41:12.465Z,1.20
2019-05-09T17:44:18.623Z,1.17
2019-05-09T17:47:22.804Z,0.67
2019-05-09T17:50:28.514Z,1.03
2019-05-09T17:53:33.760Z,1.10
2019-05-09T17:56:38.858Z,0.90
2019-05-09T17:59:44.599Z,1.43
2019-05-09T18:02:48.922Z,1.20
2019-05-09T18:05:53.141Z,1.47
2019-05-09T18:08:57.722Z,1.33
2019-05-09T18:12:01.901Z,1.60
2019-05-09T18:15:07.661Z,1.80
2019-05-09T18:18:11.887Z,1.80
2019-05-09T18:21:17.832Z,1.50
2019-05-09T18:24:21.614Z,1.60
2019-05-09T18:27:27.435Z,1.47
2019-05-09T18:30:31.576Z,1.50
2019-05-09T18:33:47.623Z,1.57
2019-05-09T18:36:52.141Z,1.20
2019-05-09T18:39:58.177Z,1.00
2019-05-09T18:43:02.221Z,1.00
2019-05-09T18:46:08.217Z,1.07
2019-05-09T18:49:12.260Z,1.00
2019-05-09T18:52:16.848Z,0.90
2019-05-09T18:55:21.351Z,0.80
2019-05-09T18:58:26.201Z,0.70
2019-05-09T19:01:30.713Z,0.80
2019-05-09T19:04:34.984Z,0.90
2019-05-09T19:07:39.165Z,0.90
2019-05-09T19:10:43.693Z,0.80
2019-05-09T19:13:48.317Z,0.90
2019-05-09T19:17:20.649Z,0.80
2019-05-09T19:20:33.511Z,1.23
2019-05-09T19:23:37.644Z,1.00
2019-05-09T19:26:42.060Z,1.57
2019-05-09T19:29:46.385Z,2.20
2019-05-09T19:32:50.665Z,2.00
2019-05-09T19:35:54.833Z,1.10
2019-05-09T19:38:59.000Z,1.47
2019-05-09T19:42:03.242Z,1.53
2019-05-09T19:45:08.954Z,1.27
2019-05-09T19:48:12.847Z,1.43
2019-05-09T19:51:16.807Z,1.20
2019-05-09T19:54:21.063Z,1.20
2019-05-09T19:57:25.794Z,1.80
2019-05-09T20:00:30.220Z,1.37
2019-05-09T20:03:34.544Z,1.53
2019-05-09T20:06:38.791Z,1.00
2019-05-09T20:09:51.362Z,1.60
2019-05-09T20:13:14.455Z,1.30
2019-05-09T20:16:18.760Z,1.37
2019-05-09T20:19:23.398Z,1.13
2019-05-09T20:22:27.400Z,1.10
2019-05-09T20:25:31.516Z,2.33
2019-05-09T20:28:35.935Z,2.10
2019-05-09T20:31:39.961Z,2.17
2019-05-09T20:34:43.872Z,1.30
2019-05-09T20:37:47.912Z,1.80
2019-05-09T20:40:52.160Z,1.60
2019-05-09T20:43:56.494Z,1.40
2019-05-09T20:47:01.179Z,1.17
2019-05-09T20:50:05.703Z,1.30
2019-05-09T20:53:10.237Z,1.03
2019-05-09T20:56:15.144Z,1.10
2019-05-09T20:59:19.825Z,1.00
2019-05-09T21:02:24.235Z,0.90
2019-05-09T21:05:28.335Z,1.00
2019-05-09T21:08:33.146Z,1.00
2019-05-09T21:11:37.325Z,1.10
2019-05-09T21:14:41.597Z,1.20
2019-05-09T21:17:45.632Z,1.53
2019-05-09T21:20:50.364Z,1.50
2019-05-09T21:23:54.944Z,1.80
2019-05-09T21:26:59.379Z,2.30
2019-05-09T21:30:04.439Z,2.73
2019-05-09T21:33:08.550Z,2.40
2019-05-09T21:36:12.483Z,2.20
2019-05-09T21:39:16.308Z,2.43
2019-05-09T21:42:20.478Z,2.10
2019-05-09T21:45:24.655Z,2.10
2019-05-09T21:48:29.646Z,1.60
2019-05-09T21:51:34.403Z,1.43
2019-05-09T21:54:38.671Z,1.70
2019-05-09T21:57:42.590Z,1.80
2019-05-09T22:00:50.780Z,1.70
2019-05-09T22:03:55.076Z,1.60
2019-05-09T22:06:59.310Z,1.73
2019-05-09T22:10:04.484Z,2.10
2019-05-09T22:13:08.803Z,3.20
2019-05-09T22:16:13.106Z,2.67
2019-05-09T22:19:17.591Z,2.10
2019-05-09T22:22:21.793Z,2.10
2019-05-09T22:25:25.781Z,1.80
2019-05-09T22:28:29.631Z,2.00
2019-05-09T22:31:34.080Z,2.10
2019-05-09T22:34:38.200Z,2.20
2019-05-09T22:37:42.932Z,2.30
2019-05-09T22:40:46.834Z,2.30
2019-05-09T22:43:50.764Z,2.33
2019-05-09T22:46:55.382Z,2.43
2019-05-09T22:49:59.210Z,3.00
2019-05-09T22:53:03.208Z,2.80
2019-05-09T22:56:07.842Z,2.67
2019-05-09T22:59:12.271Z,3.90
2019-05-09T23:02:16.197Z,3.23
2019-05-09T23:05:20.457Z,2.50
2019-05-09T23:08:24.629Z,2.40
2019-05-09T23:11:29.175Z,2.10
2019-05-09T23:14:33.695Z,2.13
2019-05-09T23:17:38.407Z,2.07
2019-05-09T23:20:57.475Z,2.30
2019-05-09T23:24:06.924Z,2.00
2019-05-09T23:27:13.118Z,1.90
2019-05-09T23:30:17.211Z,1.80
2019-05-09T23:33:22.256Z,1.50
2019-05-09T23:36:26.513Z,1.60
2019-05-09T23:39:35.103Z,1.90
2019-05-09T23:42:39.287Z,1.80
2019-05-09T23:45:44.198Z,2.23
2019-05-09T23:48:48.325Z,1.90
2019-05-09T23:51:52.610Z,2.10
2019-05-09T23:55:14.730Z,2.10
2019-05-09T23:58:36.912Z,2.30
